sensor_id;sensor_type;location;lat;lon;timestamp;pressure;altitude;pressure_sealevel;temperature;humidity
23361;BME280;11852;50.082;18.554;2022-12-10T00:01:02;97232.5;;;1.98;86.37
23361;BME280;11852;50.082;18.554;2022-12-10T00:02:03;97232.99;;;2.02;86.33
23361;BME280;11852;50.082;18.554;2022-12-10T00:03:10;97231.5;;;1.95;86.59
23361;BME280;11852;50.082;18.554;2022-12-10T00:04:18;97231.99;;;1.97;86.3
23361;BME280;11852;50.082;18.554;2022-12-10T00:05:25;97233.5;;;1.9;86.43
23361;BME280;11852;50.082;18.554;2022-12-10T00:06:33;97227.5;;;1.97;86.35
23361;BME280;11852;50.082;18.554;2022-12-10T00:07:39;97226.5;;;1.99;86.28
23361;BME280;11852;50.082;18.554;2022-12-10T00:08:48;97231.5;;;2.0;86.26
23361;BME280;11852;50.082;18.554;2022-12-10T00:09:55;97233.5;;;2.04;86.29
23361;BME280;11852;50.082;18.554;2022-12-10T00:11:02;97234.5;;;2.01;86.46
23361;BME280;11852;50.082;18.554;2022-12-10T00:12:09;97240.5;;;2.06;86.34
23361;BME280;11852;50.082;18.554;2022-12-10T00:13:16;97242.5;;;2.01;86.35
23361;BME280;11852;50.082;18.554;2022-12-10T00:14:24;97243.5;;;2.05;86.33
23361;BME280;11852;50.082;18.554;2022-12-10T00:15:33;97240.5;;;2.06;86.33
23361;BME280;11852;50.082;18.554;2022-12-10T00:16:38;97239.5;;;2.06;86.32
23361;BME280;11852;50.082;18.554;2022-12-10T00:17:45;97240.5;;;2.05;86.37
23361;BME280;11852;50.082;18.554;2022-12-10T00:18:52;97239.0;;;2.01;86.39
23361;BME280;11852;50.082;18.554;2022-12-10T00:19:59;97238.5;;;2.01;86.32
23361;BME280;11852;50.082;18.554;2022-12-10T00:21:08;97232.5;;;1.92;86.5
23361;BME280;11852;50.082;18.554;2022-12-10T00:22:14;97230.5;;;1.93;86.47
23361;BME280;11852;50.082;18.554;2022-12-10T00:23:21;97229.0;;;1.92;86.48
23361;BME280;11852;50.082;18.554;2022-12-10T00:24:28;97225.0;;;1.99;86.37
23361;BME280;11852;50.082;18.554;2022-12-10T00:25:37;97224.5;;;1.9;86.67
23361;BME280;11852;50.082;18.554;2022-12-10T00:26:44;97226.0;;;1.95;86.43
23361;BME280;11852;50.082;18.554;2022-12-10T00:27:51;97224.0;;;1.98;86.38
23361;BME280;11852;50.082;18.554;2022-12-10T00:29:04;97227.0;;;1.97;86.42
23361;BME280;11852;50.082;18.554;2022-12-10T00:30:09;97227.5;;;1.99;86.34
23361;BME280;11852;50.082;18.554;2022-12-10T00:31:17;97228.5;;;2.01;86.33
23361;BME280;11852;50.082;18.554;2022-12-10T00:32:26;97229.0;;;2.01;86.33
23361;BME280;11852;50.082;18.554;2022-12-10T00:33:33;97230.51;;;2.02;86.42
23361;BME280;11852;50.082;18.554;2022-12-10T00:34:40;97228.5;;;2.02;86.32
23361;BME280;11852;50.082;18.554;2022-12-10T00:35:49;97227.0;;;1.96;86.49
23361;BME280;11852;50.082;18.554;2022-12-10T00:36:57;97225.0;;;1.96;86.4
23361;BME280;11852;50.082;18.554;2022-12-10T00:38:05;97225.0;;;1.92;86.69
23361;BME280;11852;50.082;18.554;2022-12-10T00:39:13;97229.51;;;1.92;86.71
23361;BME280;11852;50.082;18.554;2022-12-10T00:40:20;97228.0;;;1.89;86.58
23361;BME280;11852;50.082;18.554;2022-12-10T00:41:27;97228.0;;;1.92;86.4
23361;BME280;11852;50.082;18.554;2022-12-10T00:42:34;97232.5;;;1.97;86.37
23361;BME280;11852;50.082;18.554;2022-12-10T00:43:41;97234.0;;;1.89;86.6
23361;BME280;11852;50.082;18.554;2022-12-10T00:44:50;97242.01;;;1.99;86.32
23361;BME280;11852;50.082;18.554;2022-12-10T00:45:58;97241.0;;;2.01;86.42
23361;BME280;11852;50.082;18.554;2022-12-10T00:47:06;97245.0;;;1.94;86.53
23361;BME280;11852;50.082;18.554;2022-12-10T00:48:13;97246.5;;;1.99;86.35
23361;BME280;11852;50.082;18.554;2022-12-10T00:49:20;97247.0;;;2.04;86.34
23361;BME280;11852;50.082;18.554;2022-12-10T00:50:28;97245.49;;;1.95;86.63
23361;BME280;11852;50.082;18.554;2022-12-10T00:51:34;97248.0;;;2.0;86.4
23361;BME280;11852;50.082;18.554;2022-12-10T00:52:42;97250.0;;;2.03;86.32
23361;BME280;11852;50.082;18.554;2022-12-10T00:53:50;97250.5;;;1.91;86.46
23361;BME280;11852;50.082;18.554;2022-12-10T00:54:57;97252.5;;;1.96;86.38
23361;BME280;11852;50.082;18.554;2022-12-10T00:56:05;97256.5;;;1.92;86.43
23361;BME280;11852;50.082;18.554;2022-12-10T00:57:12;97258.5;;;1.91;86.4
23361;BME280;11852;50.082;18.554;2022-12-10T00:58:20;97262.0;;;1.88;86.42
23361;BME280;11852;50.082;18.554;2022-12-10T00:59:27;97261.5;;;1.93;86.4
23361;BME280;11852;50.082;18.554;2022-12-10T01:00:35;97265.5;;;1.87;86.57
23361;BME280;11852;50.082;18.554;2022-12-10T01:01:43;97266.0;;;1.9;86.37
23361;BME280;11852;50.082;18.554;2022-12-10T01:02:51;97263.0;;;1.87;86.6
23361;BME280;11852;50.082;18.554;2022-12-10T01:04:03;97263.0;;;1.92;86.47
23361;BME280;11852;50.082;18.554;2022-12-10T01:05:06;97263.5;;;1.94;86.4
23361;BME280;11852;50.082;18.554;2022-12-10T01:07:28;97266.0;;;2.05;86.31
23361;BME280;11852;50.082;18.554;2022-12-10T01:08:35;97264.5;;;2.06;86.34
23361;BME280;11852;50.082;18.554;2022-12-10T01:09:42;97267.0;;;2.07;86.35
23361;BME280;11852;50.082;18.554;2022-12-10T01:10:52;97265.0;;;2.04;86.26
23361;BME280;11852;50.082;18.554;2022-12-10T01:12:01;97266.0;;;2.09;86.25
23361;BME280;11852;50.082;18.554;2022-12-10T01:13:07;97268.0;;;2.13;86.19
23361;BME280;11852;50.082;18.554;2022-12-10T01:14:16;97267.5;;;2.1;86.43
23361;BME280;11852;50.082;18.554;2022-12-10T01:15:21;97266.5;;;2.11;86.17
23361;BME280;11852;50.082;18.554;2022-12-10T01:16:29;97268.99;;;2.1;86.21
23361;BME280;11852;50.082;18.554;2022-12-10T01:17:36;97270.49;;;2.13;86.21
23361;BME280;11852;50.082;18.554;2022-12-10T01:18:44;97273.5;;;2.16;86.21
23361;BME280;11852;50.082;18.554;2022-12-10T01:19:52;97274.0;;;2.17;86.21
23361;BME280;11852;50.082;18.554;2022-12-10T01:21:00;97272.5;;;2.07;86.38
23361;BME280;11852;50.082;18.554;2022-12-10T01:22:07;97270.0;;;2.14;86.15
23361;BME280;11852;50.082;18.554;2022-12-10T01:23:14;97266.5;;;2.18;86.17
23361;BME280;11852;50.082;18.554;2022-12-10T01:24:21;97262.5;;;2.21;86.21
23361;BME280;11852;50.082;18.554;2022-12-10T01:25:28;97262.0;;;1.99;86.93
23361;BME280;11852;50.082;18.554;2022-12-10T01:26:35;97261.5;;;2.06;86.19
23361;BME280;11852;50.082;18.554;2022-12-10T01:27:43;97265.5;;;2.12;86.15
23361;BME280;11852;50.082;18.554;2022-12-10T01:28:51;97265.0;;;2.15;86.1
23361;BME280;11852;50.082;18.554;2022-12-10T01:29:59;97267.5;;;2.16;86.13
23361;BME280;11852;50.082;18.554;2022-12-10T01:31:08;97273.0;;;2.14;86.18
23361;BME280;11852;50.082;18.554;2022-12-10T01:32:13;97275.0;;;2.16;86.13
23361;BME280;11852;50.082;18.554;2022-12-10T01:33:21;97279.51;;;2.17;86.17
23361;BME280;11852;50.082;18.554;2022-12-10T01:34:29;97279.5;;;2.16;86.08
23361;BME280;11852;50.082;18.554;2022-12-10T01:35:37;97278.0;;;2.02;86.43
23361;BME280;11852;50.082;18.554;2022-12-10T01:36:44;97279.0;;;2.1;86.17
23361;BME280;11852;50.082;18.554;2022-12-10T01:37:50;97280.01;;;2.12;86.18
23361;BME280;11852;50.082;18.554;2022-12-10T01:38:58;97279.0;;;2.15;86.13
23361;BME280;11852;50.082;18.554;2022-12-10T01:40:06;97281.0;;;2.14;85.98
23361;BME280;11852;50.082;18.554;2022-12-10T01:41:17;97283.5;;;2.18;86.11
23361;BME280;11852;50.082;18.554;2022-12-10T01:42:20;97285.5;;;2.14;86.18
23361;BME280;11852;50.082;18.554;2022-12-10T01:43:27;97284.0;;;2.15;86.18
23361;BME280;11852;50.082;18.554;2022-12-10T01:45:50;97281.0;;;2.05;86.22
23361;BME280;11852;50.082;18.554;2022-12-10T01:46:59;97278.5;;;2.08;86.21
23361;BME280;11852;50.082;18.554;2022-12-10T01:48:06;97280.5;;;2.14;86.16
23361;BME280;11852;50.082;18.554;2022-12-10T01:49:20;97278.5;;;2.11;86.29
23361;BME280;11852;50.082;18.554;2022-12-10T01:50:27;97277.5;;;2.04;86.38
23361;BME280;11852;50.082;18.554;2022-12-10T01:51:35;97278.5;;;2.0;86.26
23361;BME280;11852;50.082;18.554;2022-12-10T01:52:42;97280.0;;;2.02;86.22
23361;BME280;11852;50.082;18.554;2022-12-10T01:53:49;97285.0;;;2.05;86.15
23361;BME280;11852;50.082;18.554;2022-12-10T01:54:56;97285.0;;;2.08;86.23
23361;BME280;11852;50.082;18.554;2022-12-10T01:56:04;97292.0;;;2.12;86.23
23361;BME280;11852;50.082;18.554;2022-12-10T01:57:15;97299.5;;;1.98;86.65
23361;BME280;11852;50.082;18.554;2022-12-10T01:58:20;97301.0;;;1.76;86.93
23361;BME280;11852;50.082;18.554;2022-12-10T01:59:28;97305.01;;;2.02;86.34
23361;BME280;11852;50.082;18.554;2022-12-10T02:00:35;97310.0;;;2.03;86.59
23361;BME280;11852;50.082;18.554;2022-12-10T02:02:56;97311.0;;;2.02;86.49
23361;BME280;11852;50.082;18.554;2022-12-10T02:09:38;97318.5;;;1.78;87.23
23361;BME280;11852;50.082;18.554;2022-12-10T02:11:22;97315.0;;;1.93;86.79
23361;BME280;11852;50.082;18.554;2022-12-10T02:12:37;97312.0;;;2.01;86.62
23361;BME280;11852;50.082;18.554;2022-12-10T02:13:47;97309.5;;;2.07;86.6
23361;BME280;11852;50.082;18.554;2022-12-10T02:14:54;97308.5;;;2.09;86.52
23361;BME280;11852;50.082;18.554;2022-12-10T02:16:02;97305.0;;;2.12;86.46
23361;BME280;11852;50.082;18.554;2022-12-10T02:17:12;97303.0;;;2.13;86.49
23361;BME280;11852;50.082;18.554;2022-12-10T02:18:24;97301.5;;;2.02;86.79
23361;BME280;11852;50.082;18.554;2022-12-10T02:20:40;97298.0;;;2.05;86.42
23361;BME280;11852;50.082;18.554;2022-12-10T02:21:47;97288.5;;;2.09;86.43
23361;BME280;11852;50.082;18.554;2022-12-10T02:24:14;97282.5;;;2.08;86.4
23361;BME280;11852;50.082;18.554;2022-12-10T02:25:21;97283.0;;;2.07;86.47
23361;BME280;11852;50.082;18.554;2022-12-10T02:30:14;97284.0;;;2.0;86.38
23361;BME280;11852;50.082;18.554;2022-12-10T02:31:26;97281.5;;;2.05;86.35
23361;BME280;11852;50.082;18.554;2022-12-10T02:32:33;97279.51;;;2.0;86.51
23361;BME280;11852;50.082;18.554;2022-12-10T02:33:43;97277.5;;;2.03;86.46
23361;BME280;11852;50.082;18.554;2022-12-10T02:34:50;97279.0;;;2.03;86.65
23361;BME280;11852;50.082;18.554;2022-12-10T02:35:55;97278.0;;;2.14;86.44
23361;BME280;11852;50.082;18.554;2022-12-10T02:37:04;97277.0;;;2.0;86.73
23361;BME280;11852;50.082;18.554;2022-12-10T02:38:13;97276.5;;;2.02;86.54
23361;BME280;11852;50.082;18.554;2022-12-10T02:39:20;97276.5;;;2.07;86.49
23361;BME280;11852;50.082;18.554;2022-12-10T02:40:29;97279.5;;;2.14;86.4
23361;BME280;11852;50.082;18.554;2022-12-10T02:41:34;97277.5;;;2.16;86.49
23361;BME280;11852;50.082;18.554;2022-12-10T02:42:41;97282.0;;;2.18;86.46
23361;BME280;11852;50.082;18.554;2022-12-10T02:43:49;97286.0;;;2.19;86.36
23361;BME280;11852;50.082;18.554;2022-12-10T02:44:56;97285.5;;;2.15;86.42
23361;BME280;11852;50.082;18.554;2022-12-10T02:46:03;97286.0;;;2.12;86.4
23361;BME280;11852;50.082;18.554;2022-12-10T02:47:10;97286.5;;;2.12;86.37
23361;BME280;11852;50.082;18.554;2022-12-10T02:48:18;97290.0;;;2.14;86.38
23361;BME280;11852;50.082;18.554;2022-12-10T02:49:25;97291.5;;;2.16;86.31
23361;BME280;11852;50.082;18.554;2022-12-10T02:50:33;97292.5;;;2.14;86.27
23361;BME280;11852;50.082;18.554;2022-12-10T02:51:40;97297.0;;;2.07;86.4
23361;BME280;11852;50.082;18.554;2022-12-10T02:52:48;97298.0;;;1.95;86.49
23361;BME280;11852;50.082;18.554;2022-12-10T02:54:01;97301.5;;;2.01;86.38
23361;BME280;11852;50.082;18.554;2022-12-10T02:55:10;97305.01;;;2.0;86.4
23361;BME280;11852;50.082;18.554;2022-12-10T03:00:07;97310.0;;;2.08;86.48
23361;BME280;11852;50.082;18.554;2022-12-10T03:07:16;97325.5;;;2.18;86.26
23361;BME280;11852;50.082;18.554;2022-12-10T03:09:31;97325.0;;;2.0;86.57
23361;BME280;11852;50.082;18.554;2022-12-10T03:11:56;97324.5;;;2.12;86.35
23361;BME280;11852;50.082;18.554;2022-12-10T03:13:03;97322.5;;;2.14;86.26
23361;BME280;11852;50.082;18.554;2022-12-10T03:14:13;97318.0;;;2.15;86.28
23361;BME280;11852;50.082;18.554;2022-12-10T03:15:19;97320.0;;;2.18;86.28
23361;BME280;11852;50.082;18.554;2022-12-10T03:16:32;97320.0;;;2.15;86.33
23361;BME280;11852;50.082;18.554;2022-12-10T03:17:37;97322.5;;;2.17;86.29
23361;BME280;11852;50.082;18.554;2022-12-10T03:18:44;97322.5;;;2.21;86.26
23361;BME280;11852;50.082;18.554;2022-12-10T03:19:51;97321.5;;;2.18;86.35
23361;BME280;11852;50.082;18.554;2022-12-10T03:20:59;97320.0;;;2.18;86.32
23361;BME280;11852;50.082;18.554;2022-12-10T03:22:06;97320.0;;;2.2;86.24
23361;BME280;11852;50.082;18.554;2022-12-10T03:23:16;97321.5;;;2.21;86.15
23361;BME280;11852;50.082;18.554;2022-12-10T03:24:22;97319.0;;;2.24;86.19
23361;BME280;11852;50.082;18.554;2022-12-10T03:25:29;97325.5;;;2.23;86.21
23361;BME280;11852;50.082;18.554;2022-12-10T03:26:36;97325.5;;;2.16;86.38
23361;BME280;11852;50.082;18.554;2022-12-10T03:27:43;97325.0;;;2.2;86.21
23361;BME280;11852;50.082;18.554;2022-12-10T03:28:51;97327.0;;;2.23;86.13
23361;BME280;11852;50.082;18.554;2022-12-10T03:29:58;97328.5;;;2.23;86.21
23361;BME280;11852;50.082;18.554;2022-12-10T03:31:05;97330.5;;;2.25;86.17
23361;BME280;11852;50.082;18.554;2022-12-10T03:32:12;97329.5;;;2.27;86.18
23361;BME280;11852;50.082;18.554;2022-12-10T03:33:19;97329.51;;;2.28;86.18
23361;BME280;11852;50.082;18.554;2022-12-10T03:34:26;97333.5;;;2.18;86.54
23361;BME280;11852;50.082;18.554;2022-12-10T03:35:34;97330.5;;;2.16;86.18
23361;BME280;11852;50.082;18.554;2022-12-10T03:36:41;97329.5;;;2.17;86.24
23361;BME280;11852;50.082;18.554;2022-12-10T03:37:48;97329.5;;;2.2;86.13
23361;BME280;11852;50.082;18.554;2022-12-10T03:38:55;97331.0;;;2.12;86.43
23361;BME280;11852;50.082;18.554;2022-12-10T03:40:04;97329.5;;;2.11;86.24
23361;BME280;11852;50.082;18.554;2022-12-10T03:41:11;97332.0;;;2.18;86.1
23361;BME280;11852;50.082;18.554;2022-12-10T03:42:19;97332.0;;;2.16;86.1
23361;BME280;11852;50.082;18.554;2022-12-10T03:43:26;97331.0;;;2.19;85.97
23361;BME280;11852;50.082;18.554;2022-12-10T03:44:34;97330.5;;;2.2;86.02
23361;BME280;11852;50.082;18.554;2022-12-10T03:45:41;97329.0;;;2.22;86.04
23361;BME280;11852;50.082;18.554;2022-12-10T03:46:48;97328.5;;;2.19;86.15
23361;BME280;11852;50.082;18.554;2022-12-10T03:47:56;97327.5;;;2.23;86.1
23361;BME280;11852;50.082;18.554;2022-12-10T03:49:02;97324.0;;;2.25;86.04
23361;BME280;11852;50.082;18.554;2022-12-10T03:50:10;97324.5;;;2.13;86.32
23361;BME280;11852;50.082;18.554;2022-12-10T03:51:18;97319.5;;;1.94;86.65
23361;BME280;11852;50.082;18.554;2022-12-10T03:52:25;97316.5;;;2.07;86.12
23361;BME280;11852;50.082;18.554;2022-12-10T03:53:32;97312.5;;;2.13;86.12
23361;BME280;11852;50.082;18.554;2022-12-10T03:54:40;97315.0;;;2.07;86.19
23361;BME280;11852;50.082;18.554;2022-12-10T03:55:47;97320.5;;;2.04;86.23
23361;BME280;11852;50.082;18.554;2022-12-10T03:56:54;97329.5;;;2.04;86.19
23361;BME280;11852;50.082;18.554;2022-12-10T03:58:03;97331.0;;;1.93;86.36
23361;BME280;11852;50.082;18.554;2022-12-10T03:59:10;97332.5;;;2.02;86.17
23361;BME280;11852;50.082;18.554;2022-12-10T04:00:17;97331.5;;;2.06;86.18
23361;BME280;11852;50.082;18.554;2022-12-10T04:01:25;97331.0;;;2.01;86.35
23361;BME280;11852;50.082;18.554;2022-12-10T04:02:32;97330.0;;;2.05;86.24
23361;BME280;11852;50.082;18.554;2022-12-10T04:03:39;97330.0;;;2.05;86.31
23361;BME280;11852;50.082;18.554;2022-12-10T04:04:46;97331.5;;;2.11;86.29
23361;BME280;11852;50.082;18.554;2022-12-10T04:05:53;97332.5;;;2.1;86.35
23361;BME280;11852;50.082;18.554;2022-12-10T04:07:00;97337.0;;;2.09;86.24
23361;BME280;11852;50.082;18.554;2022-12-10T04:08:08;97346.0;;;2.03;86.34
23361;BME280;11852;50.082;18.554;2022-12-10T04:09:15;97349.0;;;2.07;86.21
23361;BME280;11852;50.082;18.554;2022-12-10T04:10:23;97347.5;;;1.96;86.43
23361;BME280;11852;50.082;18.554;2022-12-10T04:11:31;97345.0;;;1.99;86.28
23361;BME280;11852;50.082;18.554;2022-12-10T04:12:38;97349.5;;;2.05;86.26
23361;BME280;11852;50.082;18.554;2022-12-10T04:13:51;97351.0;;;2.04;86.3
23361;BME280;11852;50.082;18.554;2022-12-10T04:15:03;97357.0;;;2.04;86.31
23361;BME280;11852;50.082;18.554;2022-12-10T04:16:13;97361.5;;;2.12;86.29
23361;BME280;11852;50.082;18.554;2022-12-10T04:17:20;97369.0;;;1.95;86.74
23361;BME280;11852;50.082;18.554;2022-12-10T04:18:27;97373.5;;;1.96;86.38
23361;BME280;11852;50.082;18.554;2022-12-10T04:19:34;97381.0;;;1.94;86.42
23361;BME280;11852;50.082;18.554;2022-12-10T04:20:47;97379.51;;;1.87;86.52
23361;BME280;11852;50.082;18.554;2022-12-10T04:22:00;97387.5;;;1.83;86.8
23361;BME280;11852;50.082;18.554;2022-12-10T04:23:13;97387.5;;;2.0;86.44
23361;BME280;11852;50.082;18.554;2022-12-10T04:24:26;97392.51;;;2.07;86.46
23361;BME280;11852;50.082;18.554;2022-12-10T04:25:38;97394.0;;;2.08;86.51
23361;BME280;11852;50.082;18.554;2022-12-10T04:26:53;97395.5;;;2.0;86.68
23361;BME280;11852;50.082;18.554;2022-12-10T04:27:59;97395.0;;;2.02;86.54
23361;BME280;11852;50.082;18.554;2022-12-10T04:29:06;97397.0;;;2.08;86.39
23361;BME280;11852;50.082;18.554;2022-12-10T04:30:14;97398.5;;;2.04;86.6
23361;BME280;11852;50.082;18.554;2022-12-10T04:31:21;97401.0;;;1.98;86.58
23361;BME280;11852;50.082;18.554;2022-12-10T04:32:29;97402.5;;;2.05;86.46
23361;BME280;11852;50.082;18.554;2022-12-10T04:33:36;97401.5;;;2.1;86.41
23361;BME280;11852;50.082;18.554;2022-12-10T04:34:44;97403.0;;;2.14;86.38
23361;BME280;11852;50.082;18.554;2022-12-10T04:35:51;97405.0;;;2.13;86.47
23361;BME280;11852;50.082;18.554;2022-12-10T04:36:58;97406.49;;;2.17;86.45
23361;BME280;11852;50.082;18.554;2022-12-10T04:38:08;97405.0;;;2.18;86.45
23361;BME280;11852;50.082;18.554;2022-12-10T04:39:16;97407.0;;;2.2;86.48
23361;BME280;11852;50.082;18.554;2022-12-10T04:40:24;97405.5;;;2.13;86.46
23361;BME280;11852;50.082;18.554;2022-12-10T04:41:32;97403.0;;;2.03;86.54
23361;BME280;11852;50.082;18.554;2022-12-10T04:42:39;97403.0;;;2.02;86.57
23361;BME280;11852;50.082;18.554;2022-12-10T04:43:47;97403.0;;;2.01;86.62
23361;BME280;11852;50.082;18.554;2022-12-10T04:44:54;97405.0;;;2.03;86.47
23361;BME280;11852;50.082;18.554;2022-12-10T04:46:01;97408.5;;;2.06;86.54
23361;BME280;11852;50.082;18.554;2022-12-10T04:47:09;97406.0;;;2.11;86.43
23361;BME280;11852;50.082;18.554;2022-12-10T04:48:15;97408.0;;;2.11;86.34
23361;BME280;11852;50.082;18.554;2022-12-10T04:49:23;97405.0;;;2.14;86.35
23361;BME280;11852;50.082;18.554;2022-12-10T04:50:30;97405.5;;;2.05;86.46
23361;BME280;11852;50.082;18.554;2022-12-10T04:51:38;97402.0;;;2.07;86.4
23361;BME280;11852;50.082;18.554;2022-12-10T04:52:45;97405.5;;;2.07;86.38
23361;BME280;11852;50.082;18.554;2022-12-10T04:53:53;97405.0;;;2.11;86.32
23361;BME280;11852;50.082;18.554;2022-12-10T04:55:01;97403.5;;;2.13;86.38
23361;BME280;11852;50.082;18.554;2022-12-10T04:56:08;97402.0;;;2.16;86.4
23361;BME280;11852;50.082;18.554;2022-12-10T04:57:15;97401.0;;;2.15;86.35
23361;BME280;11852;50.082;18.554;2022-12-10T04:58:23;97405.0;;;2.15;86.45
23361;BME280;11852;50.082;18.554;2022-12-10T04:59:30;97404.0;;;2.18;86.42
23361;BME280;11852;50.082;18.554;2022-12-10T05:00:38;97402.5;;;2.21;86.42
23361;BME280;11852;50.082;18.554;2022-12-10T05:01:46;97399.5;;;2.24;86.4
23361;BME280;11852;50.082;18.554;2022-12-10T05:02:53;97399.5;;;2.26;86.29
23361;BME280;11852;50.082;18.554;2022-12-10T05:04:04;97397.5;;;2.24;86.38
23361;BME280;11852;50.082;18.554;2022-12-10T05:05:07;97398.0;;;2.24;86.26
23361;BME280;11852;50.082;18.554;2022-12-10T05:06:15;97401.5;;;2.26;86.24
23361;BME280;11852;50.082;18.554;2022-12-10T05:07:23;97401.0;;;2.28;86.31
23361;BME280;11852;50.082;18.554;2022-12-10T05:08:30;97402.0;;;2.24;86.26
23361;BME280;11852;50.082;18.554;2022-12-10T05:09:38;97401.0;;;2.24;86.29
23361;BME280;11852;50.082;18.554;2022-12-10T05:10:45;97399.5;;;2.23;86.33
23361;BME280;11852;50.082;18.554;2022-12-10T05:11:52;97401.5;;;2.26;86.18
23361;BME280;11852;50.082;18.554;2022-12-10T05:13:00;97399.5;;;2.24;86.33
23361;BME280;11852;50.082;18.554;2022-12-10T05:14:08;97397.0;;;2.25;86.26
23361;BME280;11852;50.082;18.554;2022-12-10T05:15:15;97394.5;;;2.21;86.15
23361;BME280;11852;50.082;18.554;2022-12-10T05:16:23;97396.0;;;2.23;86.18
23361;BME280;11852;50.082;18.554;2022-12-10T05:17:30;97395.5;;;2.19;86.29
23361;BME280;11852;50.082;18.554;2022-12-10T05:18:37;97395.0;;;2.21;86.21
23361;BME280;11852;50.082;18.554;2022-12-10T05:19:44;97395.49;;;2.26;86.19
23361;BME280;11852;50.082;18.554;2022-12-10T05:20:52;97394.5;;;2.25;86.15
23361;BME280;11852;50.082;18.554;2022-12-10T05:22:05;97394.99;;;2.19;86.37
23361;BME280;11852;50.082;18.554;2022-12-10T05:23:17;97392.5;;;2.2;86.19
23361;BME280;11852;50.082;18.554;2022-12-10T05:24:25;97389.5;;;2.18;86.15
23361;BME280;11852;50.082;18.554;2022-12-10T05:25:32;97390.5;;;2.2;86.08
23361;BME280;11852;50.082;18.554;2022-12-10T05:26:39;97390.0;;;2.22;86.15
23361;BME280;11852;50.082;18.554;2022-12-10T05:27:46;97390.0;;;2.19;86.08
23361;BME280;11852;50.082;18.554;2022-12-10T05:28:54;97397.0;;;2.14;86.14
23361;BME280;11852;50.082;18.554;2022-12-10T05:30:00;97399.0;;;2.06;86.38
23361;BME280;11852;50.082;18.554;2022-12-10T05:31:14;97402.0;;;2.03;86.47
23361;BME280;11852;50.082;18.554;2022-12-10T05:32:20;97405.01;;;2.1;86.17
23361;BME280;11852;50.082;18.554;2022-12-10T05:33:27;97403.0;;;2.1;86.1
23361;BME280;11852;50.082;18.554;2022-12-10T05:34:34;97403.5;;;2.1;86.27
23361;BME280;11852;50.082;18.554;2022-12-10T05:35:41;97399.5;;;2.13;86.24
23361;BME280;11852;50.082;18.554;2022-12-10T05:36:48;97397.5;;;2.12;86.25
23361;BME280;11852;50.082;18.554;2022-12-10T05:37:55;97395.5;;;2.01;86.4
23361;BME280;11852;50.082;18.554;2022-12-10T05:39:02;97394.0;;;2.1;86.18
23361;BME280;11852;50.082;18.554;2022-12-10T05:40:10;97392.51;;;1.93;86.69
23361;BME280;11852;50.082;18.554;2022-12-10T05:41:18;97389.5;;;1.98;86.4
23361;BME280;11852;50.082;18.554;2022-12-10T05:42:24;97385.5;;;1.93;86.43
23361;BME280;11852;50.082;18.554;2022-12-10T05:43:32;97380.0;;;1.94;86.43
23361;BME280;11852;50.082;18.554;2022-12-10T05:44:39;97377.0;;;1.98;86.35
23361;BME280;11852;50.082;18.554;2022-12-10T05:45:46;97375.5;;;2.04;86.28
23361;BME280;11852;50.082;18.554;2022-12-10T05:46:54;97375.0;;;2.04;86.26
23361;BME280;11852;50.082;18.554;2022-12-10T05:48:02;97376.5;;;2.07;86.17
23361;BME280;11852;50.082;18.554;2022-12-10T05:49:09;97378.0;;;2.09;86.2
23361;BME280;11852;50.082;18.554;2022-12-10T05:50:18;97377.0;;;1.91;86.65
23361;BME280;11852;50.082;18.554;2022-12-10T05:51:26;97376.0;;;1.88;86.61
23361;BME280;11852;50.082;18.554;2022-12-10T05:52:32;97377.5;;;1.92;86.48
23361;BME280;11852;50.082;18.554;2022-12-10T05:53:40;97374.0;;;1.94;86.34
23361;BME280;11852;50.082;18.554;2022-12-10T05:54:46;97371.5;;;1.91;86.46
23361;BME280;11852;50.082;18.554;2022-12-10T05:56:03;97370.0;;;1.92;86.41
23361;BME280;11852;50.082;18.554;2022-12-10T05:57:06;97370.49;;;1.93;86.24
23361;BME280;11852;50.082;18.554;2022-12-10T05:58:13;97371.0;;;1.92;86.43
23361;BME280;11852;50.082;18.554;2022-12-10T05:59:21;97377.0;;;2.01;86.32
23361;BME280;11852;50.082;18.554;2022-12-10T06:00:30;97381.0;;;2.06;86.35
23361;BME280;11852;50.082;18.554;2022-12-10T06:01:37;97386.5;;;2.09;86.26
23361;BME280;11852;50.082;18.554;2022-12-10T06:02:44;97391.0;;;1.99;86.52
23361;BME280;11852;50.082;18.554;2022-12-10T06:03:52;97392.5;;;2.06;86.24
23361;BME280;11852;50.082;18.554;2022-12-10T06:04:59;97401.0;;;2.04;86.34
23361;BME280;11852;50.082;18.554;2022-12-10T06:06:07;97402.0;;;2.05;86.38
23361;BME280;11852;50.082;18.554;2022-12-10T06:07:14;97404.0;;;1.95;86.57
23361;BME280;11852;50.082;18.554;2022-12-10T06:08:22;97403.5;;;1.93;86.27
23361;BME280;11852;50.082;18.554;2022-12-10T06:09:30;97409.5;;;2.07;86.27
23361;BME280;11852;50.082;18.554;2022-12-10T06:10:38;97407.0;;;2.03;86.4
23361;BME280;11852;50.082;18.554;2022-12-10T06:11:45;97409.0;;;1.89;86.72
23361;BME280;11852;50.082;18.554;2022-12-10T06:12:53;97414.5;;;1.94;86.35
23361;BME280;11852;50.082;18.554;2022-12-10T06:14:01;97419.0;;;1.91;86.4
23361;BME280;11852;50.082;18.554;2022-12-10T06:15:08;97429.0;;;1.89;86.57
23361;BME280;11852;50.082;18.554;2022-12-10T06:16:16;97430.51;;;1.9;86.4
23361;BME280;11852;50.082;18.554;2022-12-10T06:17:24;97434.0;;;1.83;86.6
23361;BME280;11852;50.082;18.554;2022-12-10T06:18:31;97436.5;;;2.03;86.29
23361;BME280;11852;50.082;18.554;2022-12-10T06:19:38;97441.0;;;2.09;86.26
23361;BME280;11852;50.082;18.554;2022-12-10T06:20:46;97440.0;;;2.13;86.26
23361;BME280;11852;50.082;18.554;2022-12-10T06:21:53;97443.0;;;2.13;86.31
23361;BME280;11852;50.082;18.554;2022-12-10T06:23:00;97445.0;;;2.16;86.24
23361;BME280;11852;50.082;18.554;2022-12-10T06:24:08;97447.5;;;2.2;86.21
23361;BME280;11852;50.082;18.554;2022-12-10T06:25:15;97448.0;;;2.24;86.24
23361;BME280;11852;50.082;18.554;2022-12-10T06:26:23;97450.5;;;2.26;86.22
23361;BME280;11852;50.082;18.554;2022-12-10T06:27:30;97449.5;;;2.27;86.27
23361;BME280;11852;50.082;18.554;2022-12-10T06:28:37;97452.0;;;2.24;86.18
23361;BME280;11852;50.082;18.554;2022-12-10T06:29:44;97451.0;;;2.17;86.35
23361;BME280;11852;50.082;18.554;2022-12-10T06:30:52;97451.5;;;2.15;86.29
23361;BME280;11852;50.082;18.554;2022-12-10T06:32:00;97451.0;;;2.2;86.13
23361;BME280;11852;50.082;18.554;2022-12-10T06:33:07;97450.0;;;2.21;86.08